createdAt,value
2019-02-20T00:00:12.806Z,11.50
2019-02-20T00:02:41.078Z,11.50
2019-02-20T00:05:09.405Z,10.53
2019-02-20T00:07:37.626Z,12.27
2019-02-20T00:10:05.894Z,13.07
2019-02-20T00:12:34.182Z,10.40
2019-02-20T00:15:02.437Z,8.33
2019-02-20T00:17:30.734Z,12.37
2019-02-20T00:19:58.926Z,10.30
2019-02-20T00:22:27.216Z,9.93
2019-02-20T00:24:55.475Z,13.87
2019-02-20T00:27:23.761Z,11.37
2019-02-20T00:29:51.954Z,11.10
2019-02-20T00:32:20.246Z,12.20
2019-02-20T00:34:48.516Z,14.53
2019-02-20T00:37:16.829Z,14.10
2019-02-20T00:39:45.091Z,12.90
2019-02-20T00:42:13.358Z,13.83
2019-02-20T00:44:46.126Z,20.50
2019-02-20T00:47:30.881Z,14.27
2019-02-20T00:49:59.171Z,12.17
2019-02-20T00:52:31.750Z,9.93
2019-02-20T00:55:00.033Z,11.90
2019-02-20T00:57:28.298Z,12.23
2019-02-20T00:59:56.517Z,12.10
2019-02-20T01:02:24.783Z,13.80
2019-02-20T01:04:53.086Z,13.27
2019-02-20T01:07:21.417Z,12.63
2019-02-20T01:09:49.702Z,9.90
2019-02-20T01:12:17.899Z,13.43
2019-02-20T01:14:46.186Z,12.60
2019-02-20T01:17:14.832Z,13.00
2019-02-20T01:19:43.119Z,11.83
2019-02-20T01:22:11.385Z,20.37
2019-02-20T01:24:39.656Z,22.43
2019-02-20T01:27:07.953Z,23.03
2019-02-20T01:29:36.231Z,20.40
2019-02-20T01:32:04.513Z,16.87
2019-02-20T01:34:32.701Z,17.73
2019-02-20T01:37:00.926Z,20.60
2019-02-20T01:39:29.185Z,21.40
2019-02-20T01:41:57.408Z,25.43
2019-02-20T01:44:25.665Z,27.13
2019-02-20T01:46:53.906Z,27.00
2019-02-20T01:49:22.165Z,25.70
2019-02-20T01:51:50.364Z,11.60
2019-02-20T01:54:18.655Z,14.83
2019-02-20T01:56:47.710Z,18.70
2019-02-20T01:59:16.007Z,16.13
2019-02-20T02:01:44.268Z,16.80
2019-02-20T02:04:12.566Z,19.67
2019-02-20T02:06:40.832Z,23.50
2019-02-20T02:09:09.118Z,15.57
2019-02-20T02:11:37.310Z,20.30
2019-02-20T02:14:05.572Z,19.97
2019-02-20T02:16:33.798Z,24.80
2019-02-20T02:19:02.041Z,20.60
2019-02-20T02:21:30.293Z,20.30
2019-02-20T02:23:58.554Z,23.33
2019-02-20T02:26:26.852Z,21.20
2019-02-20T02:28:55.114Z,20.70
2019-02-20T02:31:23.346Z,21.57
2019-02-20T02:33:51.607Z,20.80
2019-02-20T02:36:19.903Z,23.80
2019-02-20T02:38:48.178Z,23.33
2019-02-20T02:41:16.397Z,21.53
2019-02-20T02:43:44.601Z,25.03
2019-02-20T02:46:12.968Z,21.83
2019-02-20T02:48:41.267Z,23.70
2019-02-20T02:51:09.559Z,25.33
2019-02-20T02:53:37.847Z,23.53
2019-02-20T02:56:06.101Z,31.80
2019-02-20T02:58:34.322Z,25.60
2019-02-20T03:01:02.525Z,25.97
2019-02-20T03:03:30.828Z,25.07
2019-02-20T03:05:59.105Z,28.53
2019-02-20T03:08:27.398Z,27.50
2019-02-20T03:10:55.593Z,29.27
2019-02-20T03:13:23.922Z,21.90
2019-02-20T03:15:52.172Z,24.50
2019-02-20T03:18:20.465Z,22.83
2019-02-20T03:20:48.666Z,24.97
2019-02-20T03:23:16.958Z,23.63
2019-02-20T03:25:45.236Z,22.17
2019-02-20T03:28:13.531Z,27.20
2019-02-20T03:30:41.799Z,24.87
2019-02-20T03:33:10.059Z,24.40
2019-02-20T03:35:38.359Z,28.33
2019-02-20T03:38:06.639Z,24.90
2019-02-20T03:40:35.102Z,26.30
2019-02-20T03:43:03.289Z,22.83
2019-02-20T03:45:31.608Z,25.37
2019-02-20T03:47:59.862Z,27.10
2019-02-20T03:50:28.095Z,29.37
2019-02-20T03:52:56.358Z,27.07
2019-02-20T03:55:24.593Z,25.43
2019-02-20T03:57:52.866Z,27.60
2019-02-20T04:00:21.097Z,28.53
2019-02-20T04:02:49.361Z,25.10
2019-02-20T04:05:17.556Z,27.17
2019-02-20T04:07:45.865Z,30.13
2019-02-20T04:10:14.130Z,27.93
2019-02-20T04:12:42.419Z,26.40
2019-02-20T04:15:10.697Z,24.70
2019-02-20T04:17:38.989Z,23.43
2019-02-20T04:20:07.550Z,26.70
2019-02-20T04:22:35.859Z,23.53
2019-02-20T04:25:04.696Z,23.63
2019-02-20T04:27:32.985Z,23.97
2019-02-20T04:30:01.197Z,25.83
2019-02-20T04:32:29.494Z,31.53
2019-02-20T04:34:57.690Z,26.03
2019-02-20T04:37:25.889Z,23.63
2019-02-20T04:39:54.123Z,27.57
2019-02-20T04:42:22.382Z,25.50
2019-02-20T04:44:50.683Z,25.03
2019-02-20T04:47:18.946Z,24.37
2019-02-20T04:49:47.166Z,27.97
2019-02-20T04:52:15.442Z,24.23
2019-02-20T04:54:43.670Z,25.33
2019-02-20T04:57:11.947Z,26.53
2019-02-20T04:59:40.305Z,25.73
2019-02-20T05:02:08.581Z,26.70
2019-02-20T05:04:36.866Z,28.03
2019-02-20T05:07:05.066Z,25.00
2019-02-20T05:09:33.358Z,25.00
2019-02-20T05:12:01.622Z,25.73
2019-02-20T05:14:30.085Z,26.00
2019-02-20T05:16:58.282Z,24.80
2019-02-20T05:19:26.574Z,17.87
2019-02-20T05:21:54.765Z,18.93
2019-02-20T05:24:25.109Z,21.30
2019-02-20T05:26:52.903Z,23.27
2019-02-20T05:29:21.165Z,22.50
2019-02-20T05:31:49.394Z,34.47
2019-02-20T05:34:17.598Z,29.50
2019-02-20T05:36:45.889Z,18.90
2019-02-20T05:39:14.081Z,23.73
2019-02-20T05:41:42.323Z,28.63
2019-02-20T05:44:10.582Z,29.10
2019-02-20T05:46:38.896Z,27.03
2019-02-20T05:49:07.169Z,23.90
2019-02-20T05:51:35.499Z,26.80
2019-02-20T05:54:03.767Z,23.97
2019-02-20T05:56:32.021Z,26.00
2019-02-20T05:59:00.239Z,23.73
2019-02-20T06:01:28.433Z,23.13
2019-02-20T06:03:56.734Z,24.00
2019-02-20T06:06:24.934Z,33.53
2019-02-20T06:08:53.238Z,21.70
2019-02-20T06:11:21.514Z,20.83
2019-02-20T06:13:49.815Z,21.53
2019-02-20T06:16:18.090Z,27.43
2019-02-20T06:18:46.387Z,20.50
2019-02-20T06:21:16.335Z,21.60
2019-02-20T06:23:44.538Z,19.80
2019-02-20T06:26:12.742Z,23.83
2019-02-20T06:28:41.018Z,22.87
2019-02-20T06:31:09.327Z,23.67
2019-02-20T06:33:37.537Z,21.33
2019-02-20T06:36:05.841Z,20.33
2019-02-20T06:38:34.137Z,24.33
2019-02-20T06:41:02.449Z,20.00
2019-02-20T06:43:30.690Z,27.10
2019-02-20T06:45:58.918Z,17.97
2019-02-20T06:48:27.118Z,22.53
2019-02-20T06:50:55.358Z,20.40
2019-02-20T06:53:23.549Z,20.30
2019-02-20T06:55:51.826Z,19.70
2019-02-20T06:58:20.121Z,19.07
2019-02-20T07:00:48.390Z,24.63
2019-02-20T07:03:16.624Z,20.17
2019-02-20T07:05:44.881Z,24.60
2019-02-20T07:08:20.350Z,18.90
2019-02-20T07:11:06.766Z,23.43
2019-02-20T07:13:36.526Z,19.87
2019-02-20T07:16:09.046Z,20.40
2019-02-20T07:18:41.751Z,27.43
2019-02-20T07:21:11.478Z,25.83
2019-02-20T07:23:41.224Z,22.60
2019-02-20T07:26:27.594Z,24.57
2019-02-20T07:29:13.590Z,21.63
2019-02-20T07:31:41.877Z,26.77
2019-02-20T07:34:10.154Z,34.70
2019-02-20T07:36:38.438Z,25.40
2019-02-20T07:39:06.710Z,38.07
2019-02-20T07:41:35.004Z,30.10
2019-02-20T07:44:03.269Z,25.67
2019-02-20T07:46:31.576Z,26.00
2019-02-20T07:48:59.841Z,24.33
2019-02-20T07:51:28.061Z,24.17
2019-02-20T07:53:56.258Z,26.17
2019-02-20T07:56:24.564Z,23.90
2019-02-20T07:58:52.825Z,31.70
2019-02-20T08:01:21.054Z,31.27
2019-02-20T08:03:49.322Z,31.93
2019-02-20T08:06:17.625Z,29.23
2019-02-20T08:08:45.894Z,28.50
2019-02-20T08:11:14.190Z,31.57
2019-02-20T08:13:42.457Z,32.50
2019-02-20T08:16:10.817Z,29.53
2019-02-20T08:18:39.034Z,34.43
2019-02-20T08:21:07.221Z,26.43
2019-02-20T08:23:35.446Z,25.97
2019-02-20T08:26:03.715Z,27.63
2019-02-20T08:28:32.014Z,34.10
2019-02-20T08:31:00.350Z,30.23
2019-02-20T08:33:28.578Z,28.80
2019-02-20T08:35:56.769Z,37.60
2019-02-20T08:38:25.053Z,35.57
2019-02-20T08:40:53.242Z,24.07
2019-02-20T08:43:21.469Z,28.53
2019-02-20T08:45:49.734Z,30.00
2019-02-20T08:48:18.042Z,21.70
2019-02-20T08:50:46.237Z,24.93
2019-02-20T08:53:14.436Z,24.30
2019-02-20T08:55:42.735Z,26.03
2019-02-20T08:58:10.997Z,24.03
2019-02-20T09:00:39.368Z,25.00
2019-02-20T09:03:07.626Z,21.03
2019-02-20T09:05:35.851Z,26.90
2019-02-20T09:08:04.111Z,30.50
2019-02-20T09:10:32.410Z,26.17
2019-02-20T09:13:00.682Z,27.00
2019-02-20T09:15:28.969Z,29.63
2019-02-20T09:17:57.173Z,27.57
2019-02-20T09:20:25.458Z,32.23
2019-02-20T09:22:53.655Z,40.87
2019-02-20T09:25:21.917Z,43.13
2019-02-20T09:27:50.140Z,44.10
2019-02-20T09:30:18.410Z,44.57
2019-02-20T09:32:46.626Z,47.23
2019-02-20T09:35:14.822Z,34.17
2019-02-20T09:37:43.117Z,34.37
2019-02-20T09:40:12.850Z,37.00
2019-02-20T09:42:41.323Z,36.23
2019-02-20T09:45:09.658Z,38.17
2019-02-20T09:47:37.955Z,49.57
2019-02-20T09:50:07.389Z,41.13
2019-02-20T09:52:35.745Z,38.07
2019-02-20T09:55:04.610Z,46.50
2019-02-20T09:57:32.928Z,49.63
2019-02-20T10:00:01.183Z,43.37
2019-02-20T10:02:29.446Z,41.33
2019-02-20T10:04:57.677Z,40.83
2019-02-20T10:07:25.946Z,47.83
2019-02-20T10:09:54.243Z,44.03
2019-02-20T10:12:22.511Z,42.00
2019-02-20T10:14:50.778Z,47.53
2019-02-20T10:17:19.047Z,33.10
2019-02-20T10:19:47.343Z,33.60
2019-02-20T10:22:15.610Z,33.70
2019-02-20T10:24:43.906Z,30.10
2019-02-20T10:27:12.172Z,35.10
2019-02-20T10:29:40.475Z,29.60
2019-02-20T10:32:08.666Z,30.27
2019-02-20T10:34:36.943Z,25.73
2019-02-20T10:37:05.230Z,28.90
2019-02-20T10:39:33.428Z,24.70
2019-02-20T10:42:01.731Z,27.00
2019-02-20T10:44:29.994Z,34.70
2019-02-20T10:46:58.223Z,25.30
2019-02-20T10:49:26.486Z,26.90
2019-02-20T10:51:54.705Z,25.70
2019-02-20T10:54:22.898Z,21.23
2019-02-20T10:56:51.118Z,24.87
2019-02-20T10:59:19.316Z,25.70
2019-02-20T11:01:47.581Z,20.80
2019-02-20T11:04:15.802Z,25.60
2019-02-20T11:06:44.003Z,24.20
2019-02-20T11:09:12.227Z,21.10
2019-02-20T11:11:40.490Z,20.53
2019-02-20T11:14:08.745Z,18.00
2019-02-20T11:16:37.025Z,18.57
2019-02-20T11:19:05.310Z,19.70
2019-02-20T11:21:33.575Z,23.67
2019-02-20T11:24:01.874Z,14.50
2019-02-20T11:26:30.236Z,18.17
2019-02-20T11:28:58.518Z,16.20
2019-02-20T11:31:26.785Z,13.40
2019-02-20T11:33:55.065Z,12.10
2019-02-20T11:36:23.355Z,13.20
2019-02-20T11:38:51.554Z,18.00
2019-02-20T11:41:19.847Z,11.40
2019-02-20T11:43:48.035Z,11.00
2019-02-20T11:46:16.250Z,9.30
2019-02-20T11:48:44.510Z,10.33
2019-02-20T11:51:12.810Z,9.30
2019-02-20T11:53:41.061Z,12.70
2019-02-20T11:56:09.378Z,10.60
2019-02-20T11:58:37.638Z,8.67
2019-02-20T12:01:05.969Z,9.33
2019-02-20T12:03:34.266Z,11.10
2019-02-20T12:06:02.453Z,8.83
2019-02-20T12:08:30.673Z,9.40
2019-02-20T12:10:58.933Z,8.77
2019-02-20T12:13:27.223Z,12.87
2019-02-20T12:15:55.407Z,8.03
2019-02-20T12:18:23.694Z,9.23
2019-02-20T12:20:51.889Z,10.30
2019-02-20T12:23:20.190Z,8.30
2019-02-20T12:25:48.454Z,12.20
2019-02-20T12:28:16.656Z,16.30
2019-02-20T12:30:45.113Z,15.60
2019-02-20T12:33:13.582Z,12.87
2019-02-20T12:35:42.380Z,15.50
2019-02-20T12:38:10.698Z,13.17
2019-02-20T12:40:38.924Z,12.80
2019-02-20T12:43:07.120Z,14.87
2019-02-20T12:45:35.409Z,12.90
2019-02-20T12:48:03.774Z,11.20
2019-02-20T12:50:32.070Z,14.63
2019-02-20T12:53:00.330Z,14.13
2019-02-20T12:55:28.625Z,10.90
2019-02-20T12:57:56.905Z,11.03
2019-02-20T13:00:25.429Z,14.40
2019-02-20T13:02:53.685Z,9.97
2019-02-20T13:05:22.018Z,9.50
2019-02-20T13:07:50.384Z,10.40
2019-02-20T13:10:18.647Z,11.40
2019-02-20T13:12:46.939Z,9.23
2019-02-20T13:15:15.207Z,9.83
2019-02-20T13:17:43.498Z,10.37
2019-02-20T13:20:11.765Z,13.27
2019-02-20T13:22:40.126Z,8.57
2019-02-20T13:25:08.992Z,10.87
2019-02-20T13:27:37.290Z,8.47
2019-02-20T13:30:07.091Z,8.20
2019-02-20T13:32:35.382Z,14.43
2019-02-20T13:35:03.941Z,9.97
2019-02-20T13:37:32.246Z,9.60
2019-02-20T13:40:00.506Z,9.10
2019-02-20T13:42:28.838Z,8.07
2019-02-20T13:44:57.179Z,7.80
2019-02-20T13:47:25.436Z,8.70
2019-02-20T13:49:53.721Z,7.90
2019-02-20T13:52:22.881Z,10.87
2019-02-20T13:54:53.230Z,12.47
2019-02-20T13:57:21.572Z,8.40
2019-02-20T13:59:49.920Z,7.23
2019-02-20T14:02:18.211Z,7.00
2019-02-20T14:04:46.548Z,8.70
2019-02-20T14:07:15.002Z,7.10
2019-02-20T14:09:43.541Z,7.07
2019-02-20T14:12:11.811Z,9.53
2019-02-20T14:14:40.074Z,6.63
2019-02-20T14:17:08.614Z,7.67
2019-02-20T14:19:36.874Z,6.80
2019-02-20T14:22:05.165Z,6.80
2019-02-20T14:24:33.568Z,9.40
2019-02-20T14:27:10.241Z,7.73
2019-02-20T14:29:31.769Z,15.00
2019-02-20T14:32:00.067Z,8.87
2019-02-20T14:34:28.329Z,7.17
2019-02-20T14:36:56.617Z,7.43
2019-02-20T14:39:24.894Z,7.40
2019-02-20T14:41:53.182Z,6.80
2019-02-20T14:44:21.449Z,8.10
2019-02-20T14:46:50.134Z,9.37
2019-02-20T14:49:18.394Z,7.83
2019-02-20T14:51:46.694Z,14.40
2019-02-20T14:54:14.961Z,17.50
2019-02-20T14:56:43.258Z,11.73
2019-02-20T14:59:11.554Z,13.77
2019-02-20T15:01:39.902Z,132.00
2019-02-20T15:04:08.394Z,8.77
2019-02-20T15:06:36.659Z,9.20
2019-02-20T15:09:05.387Z,10.20
2019-02-20T15:11:33.659Z,8.80
2019-02-20T15:14:01.958Z,7.23
2019-02-20T15:16:30.220Z,26.63
2019-02-20T15:18:58.490Z,11.47
2019-02-20T15:21:27.081Z,10.00
2019-02-20T15:23:55.351Z,10.60
2019-02-20T15:26:23.707Z,17.50
2019-02-20T15:28:51.987Z,10.03
2019-02-20T15:31:21.456Z,13.70
2019-02-20T15:33:49.738Z,15.83
2019-02-20T15:36:18.033Z,13.30
2019-02-20T15:38:46.302Z,10.00
2019-02-20T15:41:14.593Z,13.67
2019-02-20T15:43:42.864Z,11.00
2019-02-20T15:46:11.154Z,16.77
2019-02-20T15:48:39.422Z,9.60
2019-02-20T15:51:07.688Z,12.77
2019-02-20T15:53:35.977Z,11.97
2019-02-20T15:56:04.415Z,9.17
2019-02-20T15:58:33.561Z,10.80
2019-02-20T16:01:01.902Z,23.93
2019-02-20T16:03:30.202Z,17.87
2019-02-20T16:05:58.461Z,13.30
2019-02-20T16:08:26.771Z,14.53
2019-02-20T16:10:55.321Z,12.37
2019-02-20T16:13:23.676Z,11.03
2019-02-20T16:15:51.971Z,12.37
2019-02-20T16:18:20.909Z,11.30
2019-02-20T16:20:49.208Z,10.00
2019-02-20T16:23:17.466Z,13.07
2019-02-20T16:25:45.756Z,10.80
2019-02-20T16:28:14.019Z,11.47
2019-02-20T16:30:42.319Z,14.10
2019-02-20T16:33:10.582Z,12.80
2019-02-20T16:35:38.875Z,9.70
2019-02-20T16:38:07.142Z,13.37
2019-02-20T16:40:35.401Z,12.43
2019-02-20T16:43:03.889Z,10.57
2019-02-20T16:45:32.522Z,9.17
2019-02-20T16:48:00.818Z,11.10
2019-02-20T16:50:29.078Z,9.20
2019-02-20T16:52:57.375Z,13.27
2019-02-20T16:55:25.633Z,14.50
2019-02-20T16:57:56.842Z,16.53
2019-02-20T17:00:24.082Z,12.60
2019-02-20T17:02:52.696Z,16.73
2019-02-20T17:05:20.938Z,12.27
2019-02-20T17:07:49.222Z,12.80
2019-02-20T17:10:17.559Z,14.33
2019-02-20T17:12:45.830Z,14.83
2019-02-20T17:15:17.557Z,14.33
2019-02-20T17:17:45.826Z,16.50
2019-02-20T17:20:14.991Z,15.30
2019-02-20T17:22:43.326Z,18.37
2019-02-20T17:25:12.094Z,12.90
2019-02-20T17:27:40.362Z,14.23
2019-02-20T17:30:10.131Z,15.73
2019-02-20T17:32:38.477Z,16.20
2019-02-20T17:35:08.035Z,14.70
2019-02-20T17:37:36.310Z,12.67
2019-02-20T17:40:05.670Z,10.60
2019-02-20T17:42:33.930Z,13.40
2019-02-20T17:45:02.226Z,14.93
2019-02-20T17:47:30.490Z,17.27
2019-02-20T17:49:58.962Z,30.57
2019-02-20T17:52:27.249Z,13.30
2019-02-20T17:54:55.516Z,18.33
2019-02-20T17:57:23.809Z,18.93
2019-02-20T17:59:52.074Z,24.03
2019-02-20T18:02:20.298Z,26.90
2019-02-20T18:04:48.581Z,26.10
2019-02-20T18:07:17.239Z,21.10
2019-02-20T18:09:45.534Z,18.80
2019-02-20T18:12:13.832Z,15.50
2019-02-20T18:14:42.094Z,14.93
2019-02-20T18:17:10.283Z,15.30
2019-02-20T18:19:38.502Z,14.70
2019-02-20T18:22:06.769Z,18.80
2019-02-20T18:24:35.062Z,22.50
2019-02-20T18:27:03.331Z,16.13
2019-02-20T18:29:31.631Z,16.10
2019-02-20T18:31:59.910Z,23.13
2019-02-20T18:34:28.202Z,16.17
2019-02-20T18:36:56.488Z,17.97
2019-02-20T18:39:24.793Z,25.67
2019-02-20T18:41:54.154Z,18.13
2019-02-20T18:44:22.421Z,18.13
2019-02-20T18:46:50.716Z,23.23
2019-02-20T18:49:21.056Z,19.43
2019-02-20T18:51:48.932Z,17.63
2019-02-20T18:54:17.189Z,14.23
2019-02-20T18:56:45.495Z,18.40
2019-02-20T18:59:13.754Z,19.97
2019-02-20T19:01:42.043Z,21.33
2019-02-20T19:04:10.321Z,25.73
2019-02-20T19:06:38.653Z,18.03
2019-02-20T19:09:08.591Z,19.07
2019-02-20T19:11:53.458Z,22.47
2019-02-20T19:14:23.214Z,22.23
2019-02-20T19:16:58.653Z,17.03
2019-02-20T19:19:28.474Z,30.13
2019-02-20T19:21:58.285Z,33.47
2019-02-20T19:24:43.148Z,22.77
2019-02-20T19:27:24.879Z,24.77
2019-02-20T19:29:54.690Z,24.20
2019-02-20T19:32:40.775Z,15.80
2019-02-20T19:35:22.636Z,19.10
2019-02-20T19:38:06.273Z,16.67
2019-02-20T19:40:38.809Z,16.47
2019-02-20T19:43:11.204Z,17.47
2019-02-20T19:45:52.859Z,14.30
2019-02-20T19:48:28.619Z,17.23
2019-02-20T19:51:01.846Z,16.73
2019-02-20T19:53:31.756Z,19.40
2019-02-20T19:56:01.593Z,14.97
2019-02-20T19:58:40.397Z,19.50
2019-02-20T20:01:15.891Z,16.10
2019-02-20T20:03:51.679Z,17.73
2019-02-20T20:06:34.119Z,14.87
2019-02-20T20:09:03.938Z,14.77
2019-02-20T20:11:44.248Z,15.93
2019-02-20T20:14:07.991Z,17.03
2019-02-20T20:16:46.914Z,16.90
2019-02-20T20:19:28.859Z,15.30
2019-02-20T20:22:01.634Z,19.50
2019-02-20T20:24:34.407Z,19.57
2019-02-20T20:27:04.249Z,19.27
2019-02-20T20:29:37.025Z,16.73
2019-02-20T20:32:15.810Z,20.03
2019-02-20T20:34:48.544Z,19.10
2019-02-20T20:37:18.328Z,16.80
2019-02-20T20:39:48.159Z,15.63
2019-02-20T20:42:34.422Z,19.10
2019-02-20T20:45:04.326Z,18.77
2019-02-20T20:47:50.674Z,15.20
2019-02-20T20:50:20.475Z,16.20
2019-02-20T20:52:53.186Z,21.43
2019-02-20T20:55:22.942Z,18.90
2019-02-20T20:57:58.406Z,20.83
2019-02-20T21:00:31.391Z,23.70
2019-02-20T21:03:01.223Z,19.10
2019-02-20T21:05:39.675Z,19.23
2019-02-20T21:08:15.411Z,26.37
2019-02-20T21:10:46.589Z,17.23
2019-02-20T21:13:16.474Z,19.93
2019-02-20T21:16:04.314Z,17.60
2019-02-20T21:18:34.042Z,16.50
2019-02-20T21:21:03.802Z,18.67
2019-02-20T21:23:42.578Z,16.23
2019-02-20T21:26:30.618Z,21.63
2019-02-20T21:29:12.538Z,19.37
2019-02-20T21:32:00.850Z,17.83
2019-02-20T21:34:46.604Z,16.90
2019-02-20T21:37:25.102Z,19.70
2019-02-20T21:39:54.902Z,21.87
2019-02-20T21:42:30.613Z,31.60
2019-02-20T21:45:03.437Z,19.57
2019-02-20T21:47:36.018Z,17.10
2019-02-20T21:50:21.943Z,15.10
2019-02-20T21:52:54.710Z,13.50
2019-02-20T21:55:24.514Z,20.00
2019-02-20T21:57:57.368Z,17.30
2019-02-20T22:00:29.840Z,16.10
2019-02-20T22:03:08.366Z,16.80
2019-02-20T22:05:38.126Z,20.40
2019-02-20T22:08:14.007Z,21.70
2019-02-20T22:10:43.809Z,21.07
2019-02-20T22:13:25.389Z,22.20
2019-02-20T22:15:55.149Z,17.20
2019-02-20T22:18:27.830Z,21.00
2019-02-20T22:21:03.620Z,17.50
2019-02-20T22:23:39.430Z,20.73
2019-02-20T22:26:14.963Z,21.07
2019-02-20T22:28:44.778Z,20.80
2019-02-20T22:31:30.951Z,19.13
2019-02-20T22:34:00.775Z,21.43
2019-02-20T22:36:33.662Z,20.57
2019-02-20T22:39:04.662Z,24.47
2019-02-20T22:41:37.404Z,19.20
2019-02-20T22:44:10.171Z,16.90
2019-02-20T22:46:45.802Z,21.63
2019-02-20T22:49:30.615Z,21.73
2019-02-20T22:52:03.391Z,18.10
2019-02-20T22:54:35.897Z,17.57
2019-02-20T22:57:08.525Z,21.50
2019-02-20T23:00:02.091Z,19.37
2019-02-20T23:02:30.998Z,16.07
2019-02-20T23:05:03.773Z,19.23
2019-02-20T23:07:33.614Z,18.50
2019-02-20T23:10:03.409Z,16.50
2019-02-20T23:12:45.202Z,19.03
2019-02-20T23:15:13.399Z,23.53
2019-02-20T23:17:41.746Z,18.03
2019-02-20T23:20:10.010Z,17.60
2019-02-20T23:22:38.235Z,18.73
2019-02-20T23:25:06.489Z,15.40
2019-02-20T23:27:34.727Z,18.13
2019-02-20T23:30:12.608Z,22.27
2019-02-20T23:32:32.966Z,21.70
2019-02-20T23:35:01.248Z,20.80
2019-02-20T23:37:29.501Z,16.77
2019-02-20T23:39:57.728Z,24.10
2019-02-20T23:42:25.990Z,19.73
2019-02-20T23:44:54.208Z,19.03
2019-02-20T23:47:22.480Z,19.27
2019-02-20T23:49:50.770Z,19.53
2019-02-20T23:52:18.958Z,20.17
2019-02-20T23:54:47.254Z,20.70
2019-02-20T23:57:15.518Z,23.43
2019-02-20T23:59:43.751Z,22.33
